createdAt,value
2023-11-02T00:01:09.654Z,99473.41
2023-11-02T00:03:46.761Z,99477.44
2023-11-02T00:06:38.381Z,99471.69
2023-11-02T00:09:40.529Z,99475.97
2023-11-02T00:12:13.525Z,99468.38
2023-11-02T00:14:55.442Z,99463.44
2023-11-02T00:17:53.665Z,99453.41
2023-11-02T00:20:38.461Z,99444.47
2023-11-02T00:23:10.491Z,99448.13
2023-11-02T00:25:57.577Z,99440.56
2023-11-02T00:28:28.252Z,99439.56
2023-11-02T00:30:58.344Z,99447.31
2023-11-02T00:33:29.696Z,99434.88
2023-11-02T00:36:02.588Z,99435.34
2023-11-02T00:38:32.930Z,99435.16
2023-11-02T00:41:04.336Z,99434.97
2023-11-02T00:43:34.505Z,99440.44
2023-11-02T00:46:04.621Z,99437.78
2023-11-02T00:48:37.764Z,99437.78
2023-11-02T00:51:21.334Z,99430.03
2023-11-02T00:53:56.675Z,99425.13
2023-11-02T00:56:31.161Z,99409.59
2023-11-02T00:59:02.037Z,99406.50
2023-11-02T01:01:33.268Z,99411.53
2023-11-02T01:04:07.041Z,99417.66
2023-11-02T01:06:40.875Z,99414.56
2023-11-02T01:09:44.054Z,99414.31
2023-11-02T01:12:14.702Z,99402.25
2023-11-02T01:14:51.423Z,99404.91
2023-11-02T01:17:31.960Z,99404.91
2023-11-02T01:20:10.283Z,99393.50
2023-11-02T01:22:56.817Z,99391.03
2023-11-02T01:25:30.262Z,99390.41
2023-11-02T01:28:08.145Z,99394.69
2023-11-02T01:31:14.124Z,99386.94
2023-11-02T01:34:05.613Z,99378.00
2023-11-02T01:36:41.471Z,99376.00
2023-11-02T01:39:50.017Z,99355.81
2023-11-02T01:42:46.731Z,99376.00
2023-11-02T01:45:26.026Z,99358.47
2023-11-02T01:48:07.080Z,99341.59
2023-11-02T01:50:39.436Z,99347.88
2023-11-02T01:53:32.478Z,99349.72
2023-11-02T01:56:26.471Z,99337.19
2023-11-02T01:59:10.721Z,99332.28
2023-11-02T02:01:45.909Z,99325.34
2023-11-02T02:04:25.933Z,99327.00
2023-11-02T02:07:07.963Z,99321.69
2023-11-02T02:09:59.062Z,99313.56
2023-11-02T02:12:37.817Z,99322.50
2023-11-02T02:15:21.326Z,99321.88
2023-11-02T02:17:58.489Z,99325.53
2023-11-02T02:20:35.340Z,99324.72
2023-11-02T02:23:15.149Z,99324.91
2023-11-02T02:25:55.282Z,99322.00
2023-11-02T02:28:55.742Z,99326.28
2023-11-02T02:31:44.163Z,99323.00
2023-11-02T02:34:53.001Z,99325.00
2023-11-02T02:37:31.385Z,99317.25
2023-11-02T02:40:08.256Z,99312.34
2023-11-02T02:42:40.002Z,99315.63
2023-11-02T02:45:12.218Z,99317.44
2023-11-02T02:47:43.539Z,99316.38
2023-11-02T02:50:16.357Z,99308.81
2023-11-02T02:52:53.520Z,99304.06
2023-11-02T02:55:25.647Z,99306.09
2023-11-02T02:57:58.984Z,99294.38
2023-11-02T03:00:31.640Z,99285.81
2023-11-02T03:03:23.108Z,99287.66
2023-11-02T03:05:56.870Z,99290.09
2023-11-02T03:08:33.295Z,99302.50
2023-11-02T03:11:09.523Z,99293.50
2023-11-02T03:13:48.395Z,99284.47
2023-11-02T03:16:23.296Z,99277.09
2023-11-02T03:18:53.597Z,99268.72
2023-11-02T03:21:23.875Z,99258.16
2023-11-02T03:24:04.000Z,99250.22
2023-11-02T03:26:43.387Z,99236.38
2023-11-02T03:29:23.030Z,99230.19
2023-11-02T03:32:01.441Z,99233.81
2023-11-02T03:34:41.485Z,99225.78
2023-11-02T03:37:19.400Z,99228.78
2023-11-02T03:40:13.302Z,99228.97
2023-11-02T03:42:53.328Z,99227.16
2023-11-02T03:45:35.972Z,99219.03
2023-11-02T03:48:22.409Z,99219.22
2023-11-02T03:51:02.645Z,99225.69
2023-11-02T03:53:41.149Z,99232.00
2023-11-02T03:56:29.565Z,99232.00
2023-11-02T03:59:09.522Z,99230.72
2023-11-02T04:01:52.536Z,99224.97
2023-11-02T04:04:30.351Z,99222.03
2023-11-02T04:07:08.771Z,99221.22
2023-11-02T04:09:45.828Z,99222.59
2023-11-02T04:12:30.721Z,99214.22
2023-11-02T04:15:04.200Z,99225.28
2023-11-02T04:17:35.067Z,99218.75
2023-11-02T04:20:06.103Z,99206.91
2023-11-02T04:22:36.323Z,99212.72
2023-11-02T04:25:06.842Z,99199.72
2023-11-02T04:27:40.572Z,99193.59
2023-11-02T04:30:12.056Z,99190.50
2023-11-02T04:32:42.324Z,99182.31
2023-11-02T04:35:13.693Z,99189.41
2023-11-02T04:37:44.350Z,99184.13
2023-11-02T04:40:15.192Z,99173.41
2023-11-02T04:42:47.937Z,99160.81
2023-11-02T04:45:18.292Z,99166.09
2023-11-02T04:47:48.413Z,99166.28
2023-11-02T04:50:21.120Z,99153.63
2023-11-02T04:52:52.140Z,99151.81
2023-11-02T04:55:22.181Z,99146.25
2023-11-02T04:57:54.889Z,99145.81
2023-11-02T05:00:25.714Z,99132.63
2023-11-02T05:02:55.800Z,99133.63
2023-11-02T05:05:25.954Z,99125.03
2023-11-02T05:07:56.137Z,99123.38
2023-11-02T05:10:29.194Z,99131.84
2023-11-02T05:13:11.095Z,99128.75
2023-11-02T05:15:55.364Z,99120.84
2023-11-02T05:18:27.099Z,99113.56
2023-11-02T05:20:59.267Z,99110.09
2023-11-02T05:23:29.525Z,99108.28
2023-11-02T05:25:59.556Z,99104.81
2023-11-02T05:28:32.776Z,99090.19
2023-11-02T05:31:02.861Z,99097.09
2023-11-02T05:33:32.954Z,99088.72
2023-11-02T05:36:04.257Z,99098.47
2023-11-02T05:38:34.336Z,99094.19
2023-11-02T05:41:04.465Z,99083.00
2023-11-02T05:43:38.277Z,99088.28
2023-11-02T05:46:09.237Z,99078.72
2023-11-02T05:48:39.336Z,99063.25
2023-11-02T05:51:10.487Z,99065.06
2023-11-02T05:53:40.774Z,99075.81
2023-11-02T05:56:16.615Z,99071.72
2023-11-02T05:58:55.041Z,99069.34
2023-11-02T06:01:25.113Z,99073.94
2023-11-02T06:03:55.242Z,99070.03
2023-11-02T06:06:25.573Z,99069.69
2023-11-02T06:08:55.695Z,99056.66
2023-11-02T06:11:26.035Z,99056.34
2023-11-02T06:14:00.082Z,99064.06
2023-11-02T06:16:30.275Z,99057.16
2023-11-02T06:19:00.323Z,99050.22
2023-11-02T06:21:30.474Z,99049.25
2023-11-02T06:24:00.811Z,99046.59
2023-11-02T06:26:30.873Z,99038.97
2023-11-02T06:29:03.569Z,99036.41
2023-11-02T06:31:33.727Z,99033.03
2023-11-02T06:34:03.888Z,99030.66
2023-11-02T06:36:34.196Z,99041.31
2023-11-02T06:39:04.800Z,99034.94
2023-11-02T06:41:35.069Z,99036.66
2023-11-02T06:44:08.184Z,99031.91
2023-11-02T06:46:42.369Z,99024.31
2023-11-02T06:49:15.556Z,99023.47
2023-11-02T06:51:45.689Z,99024.91
2023-11-02T06:54:15.771Z,99012.84
2023-11-02T06:56:45.995Z,99013.53
2023-11-02T06:59:18.671Z,99000.41
2023-11-02T07:01:51.487Z,98980.44
2023-11-02T07:04:21.695Z,98976.47
2023-11-02T07:06:51.960Z,98978.53
2023-11-02T07:09:22.284Z,98963.91
2023-11-02T07:11:52.463Z,98963.66
2023-11-02T07:14:44.174Z,98971.13
2023-11-02T07:17:20.752Z,98968.63
2023-11-02T07:19:51.289Z,98962.25
2023-11-02T07:22:21.541Z,98956.03
2023-11-02T07:24:51.614Z,98957.28
2023-11-02T07:27:21.693Z,98943.03
2023-11-02T07:29:54.402Z,98953.47
2023-11-02T07:32:24.489Z,98943.72
2023-11-02T07:34:54.818Z,98938.28
2023-11-02T07:37:25.034Z,98932.34
2023-11-02T07:39:55.214Z,98928.44
2023-11-02T07:42:25.406Z,98922.78
2023-11-02T07:44:58.220Z,98919.72
2023-11-02T07:47:28.376Z,98917.88
2023-11-02T07:49:58.654Z,98904.81
2023-11-02T07:52:28.916Z,98901.09
2023-11-02T07:54:59.304Z,98899.84
2023-11-02T07:57:31.079Z,98895.34
2023-11-02T08:00:04.527Z,98889.84
2023-11-02T08:02:42.158Z,98888.78
2023-11-02T08:05:12.903Z,98884.72
2023-11-02T08:07:43.071Z,98879.63
2023-11-02T08:10:13.558Z,98873.72
2023-11-02T08:12:43.833Z,98862.13
2023-11-02T08:15:16.963Z,98864.41
2023-11-02T08:17:47.381Z,98868.47
2023-11-02T08:20:18.905Z,98853.81
2023-11-02T08:22:49.478Z,98861.63
2023-11-02T08:25:20.238Z,98861.44
2023-11-02T08:27:58.510Z,98853.69
2023-11-02T08:30:32.207Z,98865.72
2023-11-02T08:33:02.632Z,98864.09
2023-11-02T08:35:32.761Z,98851.22
2023-11-02T08:38:03.440Z,98861.97
2023-11-02T08:40:33.559Z,98849.97
2023-11-02T08:43:04.490Z,98844.50
2023-11-02T08:45:37.266Z,98824.94
2023-11-02T08:48:08.599Z,98835.69
2023-11-02T08:50:42.590Z,98820.59
2023-11-02T08:53:17.170Z,98816.00
2023-11-02T08:55:53.072Z,98818.56
2023-11-02T08:58:23.098Z,98819.28
2023-11-02T09:00:55.814Z,98807.09
2023-11-02T09:03:25.927Z,98783.66
2023-11-02T09:05:56.245Z,98782.69
2023-11-02T09:08:26.388Z,98767.84
2023-11-02T09:10:56.764Z,98768.06
2023-11-02T09:13:26.885Z,98763.59
2023-11-02T09:15:59.604Z,98767.91
2023-11-02T09:18:29.825Z,98759.56
2023-11-02T09:21:00.232Z,98747.00
2023-11-02T09:23:30.541Z,98742.72
2023-11-02T09:26:00.923Z,98747.53
2023-11-02T09:28:31.117Z,98742.06
2023-11-02T09:31:04.067Z,98718.44
2023-11-02T09:33:34.218Z,98714.19
2023-11-02T09:36:04.646Z,98720.13
2023-11-02T09:38:34.737Z,98707.69
2023-11-02T09:41:04.780Z,98698.69
2023-11-02T09:43:35.302Z,98691.25
2023-11-02T09:46:08.885Z,98681.88
2023-11-02T09:48:39.312Z,98692.53
2023-11-02T09:51:12.224Z,98689.22
2023-11-02T09:53:45.388Z,98675.06
2023-11-02T09:56:16.346Z,98659.38
2023-11-02T09:58:47.559Z,98660.72
2023-11-02T10:01:21.150Z,98638.22
2023-11-02T10:03:51.409Z,98633.97
2023-11-02T10:06:21.717Z,98620.69
2023-11-02T10:08:52.024Z,98609.03
2023-11-02T10:11:26.097Z,98621.59
2023-11-02T10:13:57.566Z,98628.59
2023-11-02T10:16:30.322Z,98633.69
2023-11-02T10:19:00.693Z,98635.31
2023-11-02T10:21:30.943Z,98610.78
2023-11-02T10:24:03.434Z,98573.63
2023-11-02T10:26:35.627Z,98581.09
2023-11-02T10:29:06.868Z,98588.22
2023-11-02T10:31:39.785Z,98585.63
2023-11-02T10:34:11.096Z,98570.34
2023-11-02T10:36:41.252Z,98577.31
2023-11-02T10:39:12.023Z,98580.28
2023-11-02T10:41:42.520Z,98586.41
2023-11-02T10:44:14.172Z,98595.19
2023-11-02T10:46:47.833Z,98592.88
2023-11-02T10:49:20.115Z,98581.16
2023-11-02T10:51:52.474Z,98569.22
2023-11-02T10:54:38.679Z,98571.63
2023-11-02T10:57:18.683Z,98567.66
2023-11-02T10:59:50.268Z,98545.19
2023-11-02T11:02:23.159Z,98525.59
2023-11-02T11:05:00.075Z,98522.34
2023-11-02T11:07:36.049Z,98525.81
2023-11-02T11:10:10.013Z,98534.03
2023-11-02T11:12:41.727Z,98537.16
2023-11-02T11:15:13.484Z,98542.69
2023-11-02T11:17:49.435Z,98541.53
2023-11-02T11:20:20.728Z,98522.31
2023-11-02T11:22:54.530Z,98526.06
2023-11-02T11:25:24.758Z,98514.88
2023-11-02T11:27:54.948Z,98515.34
2023-11-02T11:30:39.032Z,98513.28
2023-11-02T11:33:53.881Z,98518.75
2023-11-02T11:36:29.254Z,98510.03
2023-11-02T11:39:00.838Z,98491.50
2023-11-02T11:41:47.523Z,98491.34
2023-11-02T11:44:21.804Z,98465.09
2023-11-02T11:46:54.844Z,98456.41
2023-11-02T11:49:49.264Z,98456.06
2023-11-02T11:52:29.423Z,98452.78
2023-11-02T11:54:59.583Z,98439.97
2023-11-02T11:57:58.880Z,98459.25
2023-11-02T12:00:32.032Z,98446.41
2023-11-02T12:03:05.772Z,98436.81
2023-11-02T12:05:59.877Z,98441.91
2023-11-02T12:08:29.951Z,98444.34
2023-11-02T12:11:02.018Z,98423.31
2023-11-02T12:13:32.125Z,98401.00
2023-11-02T12:16:04.746Z,98396.97
2023-11-02T12:18:38.014Z,98398.69
2023-11-02T12:21:19.266Z,98392.78
2023-11-02T12:23:51.765Z,98402.00
2023-11-02T12:26:23.193Z,98412.63
2023-11-02T12:28:57.800Z,98403.84
2023-11-02T12:31:32.715Z,98398.09
2023-11-02T12:34:05.188Z,98387.00
2023-11-02T12:36:38.251Z,98395.56
2023-11-02T12:39:15.915Z,98395.09
2023-11-02T12:41:49.121Z,98399.38
2023-11-02T12:44:21.543Z,98399.38
2023-11-02T12:46:54.661Z,98400.41
2023-11-02T12:49:26.945Z,98385.50
2023-11-02T12:52:10.830Z,98388.19
2023-11-02T12:54:41.158Z,98384.78
2023-11-02T12:57:13.087Z,98381.41
2023-11-02T12:59:46.150Z,98378.19
2023-11-02T13:02:27.145Z,98376.25
2023-11-02T13:04:59.889Z,98388.28
2023-11-02T13:07:36.584Z,98374.25
2023-11-02T13:10:11.635Z,98378.41
2023-11-02T13:12:45.684Z,98379.69
2023-11-02T13:15:18.251Z,98373.22
2023-11-02T13:17:49.771Z,98372.88
2023-11-02T13:20:23.495Z,98370.66
2023-11-02T13:22:58.985Z,98385.22
2023-11-02T13:25:29.103Z,98359.56
2023-11-02T13:28:00.626Z,98362.41
2023-11-02T13:30:30.969Z,98359.66
2023-11-02T13:33:05.645Z,98369.22
2023-11-02T13:35:36.237Z,98373.16
2023-11-02T13:38:10.231Z,98368.66
2023-11-02T13:40:40.504Z,98379.50
2023-11-02T13:43:10.862Z,98363.78
2023-11-02T13:45:41.685Z,98375.47
2023-11-02T13:48:13.490Z,98364.38
2023-11-02T13:50:43.681Z,98376.63
2023-11-02T13:53:16.405Z,98379.50
2023-11-02T13:55:48.323Z,98373.16
2023-11-02T13:58:19.533Z,98369.69
2023-11-02T14:00:51.606Z,98368.88
2023-11-02T14:03:22.609Z,98376.84
2023-11-02T14:05:55.428Z,98371.19
2023-11-02T14:08:28.200Z,98356.75
2023-11-02T14:10:59.151Z,98354.53
2023-11-02T14:13:32.961Z,98346.22
2023-11-02T14:16:03.191Z,98350.72
2023-11-02T14:18:33.613Z,98332.34
2023-11-02T14:21:06.225Z,98333.16
2023-11-02T14:23:38.932Z,98324.38
2023-11-02T14:26:09.214Z,98328.06
2023-11-02T14:28:39.305Z,98331.19
2023-11-02T14:31:12.359Z,98329.56
2023-11-02T14:33:44.417Z,98317.56
2023-11-02T14:36:18.607Z,98307.16
2023-11-02T14:38:51.334Z,98319.06
2023-11-02T14:41:23.639Z,98325.38
2023-11-02T14:43:56.718Z,98305.97
2023-11-02T14:46:26.930Z,98299.03
2023-11-02T14:48:57.300Z,98305.03
2023-11-02T14:51:27.471Z,98299.13
2023-11-02T14:54:09.527Z,98291.63
2023-11-02T14:56:42.107Z,98291.06
2023-11-02T14:59:12.400Z,98276.59
2023-11-02T15:01:42.468Z,98292.19
2023-11-02T15:04:13.699Z,98284.44
2023-11-02T15:06:43.964Z,98279.38
2023-11-02T15:09:16.898Z,98283.88
2023-11-02T15:11:48.865Z,98269.44
2023-11-02T15:14:19.181Z,98275.78
2023-11-02T15:16:51.132Z,98282.13
2023-11-02T15:19:21.741Z,98279.69
2023-11-02T15:21:51.943Z,98281.53
2023-11-02T15:24:25.565Z,98278.06
2023-11-02T15:26:55.850Z,98290.53
2023-11-02T15:29:35.335Z,98295.84
2023-11-02T15:32:09.011Z,98293.66
2023-11-02T15:34:55.097Z,98291.66
2023-11-02T15:37:26.372Z,98288.41
2023-11-02T15:39:59.422Z,98282.75
2023-11-02T15:42:31.490Z,98289.31
2023-11-02T15:45:04.793Z,98292.19
2023-11-02T15:47:36.566Z,98286.31
2023-11-02T15:50:09.114Z,98282.03
2023-11-02T15:52:45.264Z,98288.38
2023-11-02T15:55:18.281Z,98292.28
2023-11-02T15:57:51.607Z,98277.59
2023-11-02T16:00:22.716Z,98274.34
2023-11-02T16:02:55.452Z,98271.13
2023-11-02T16:05:26.883Z,98262.34
2023-11-02T16:07:59.030Z,98253.56
2023-11-02T16:10:39.367Z,98242.38
2023-11-02T16:13:09.508Z,98245.03
2023-11-02T16:15:39.922Z,98247.22
2023-11-02T16:18:10.272Z,98241.94
2023-11-02T16:20:44.751Z,98235.00
2023-11-02T16:23:15.108Z,98225.19
2023-11-02T16:25:47.969Z,98212.72
2023-11-02T16:28:18.105Z,98223.34
2023-11-02T16:30:48.490Z,98223.34
2023-11-02T16:33:19.192Z,98226.00
2023-11-02T16:35:51.928Z,98216.44
2023-11-02T16:38:27.421Z,98229.09
2023-11-02T16:41:00.727Z,98225.28
2023-11-02T16:43:31.904Z,98225.53
2023-11-02T16:46:02.018Z,98228.97
2023-11-02T16:48:32.640Z,98235.31
2023-11-02T16:51:02.888Z,98248.38
2023-11-02T16:53:33.015Z,98265.53
2023-11-02T16:56:05.868Z,98274.50
2023-11-02T16:58:36.498Z,98272.53
2023-11-02T17:01:07.619Z,98273.19
2023-11-02T17:03:37.957Z,98263.03
2023-11-02T17:06:08.933Z,98257.38
2023-11-02T17:08:39.078Z,98258.84
2023-11-02T17:11:12.670Z,98260.09
2023-11-02T17:13:42.905Z,98251.56
2023-11-02T17:16:13.937Z,98254.06
2023-11-02T17:18:44.730Z,98258.22
2023-11-02T17:21:16.408Z,98267.59
2023-11-02T17:23:47.667Z,98270.13
2023-11-02T17:26:20.712Z,98278.72
2023-11-02T17:28:51.032Z,98280.34
2023-11-02T17:31:21.337Z,98272.19
2023-11-02T17:33:52.104Z,98274.81
2023-11-02T17:36:22.501Z,98269.97
2023-11-02T17:38:52.696Z,98272.84
2023-11-02T17:41:25.489Z,98262.25
2023-11-02T17:43:55.890Z,98265.94
2023-11-02T17:46:26.011Z,98259.44
2023-11-02T17:48:56.350Z,98265.19
2023-11-02T17:51:27.475Z,98265.19
2023-11-02T17:53:57.642Z,98253.19
2023-11-02T17:59:15.165Z,98245.38
2023-11-02T18:01:49.045Z,98246.00
2023-11-02T18:04:19.414Z,98259.34
2023-11-02T18:06:56.837Z,98251.44
2023-11-02T18:09:30.496Z,98253.13
2023-11-02T18:12:03.947Z,98259.09
2023-11-02T18:14:36.387Z,98241.78
2023-11-02T18:17:06.661Z,98236.94
2023-11-02T18:19:39.133Z,98239.81
2023-11-02T18:22:10.443Z,98244.09
2023-11-02T18:24:44.011Z,98228.69
2023-11-02T18:27:17.115Z,98232.78
2023-11-02T18:29:47.702Z,98234.25
2023-11-02T18:32:20.372Z,98231.03
2023-11-02T18:34:56.346Z,98230.44
2023-11-02T18:37:29.651Z,98225.34
2023-11-02T18:40:03.961Z,98222.91
2023-11-02T18:42:38.913Z,98234.31
2023-11-02T18:45:12.838Z,98243.50
2023-11-02T18:47:50.633Z,98242.91
2023-11-02T18:50:49.584Z,98232.97
2023-11-02T18:53:24.101Z,98228.66
2023-11-02T18:55:56.767Z,98237.25
2023-11-02T18:58:31.406Z,98229.16
2023-11-02T19:01:04.023Z,98233.41
2023-11-02T19:03:36.539Z,98230.78
2023-11-02T19:06:10.397Z,98236.88
2023-11-02T19:08:44.596Z,98236.66
2023-11-02T19:11:21.886Z,98231.59
2023-11-02T19:13:54.787Z,98234.66
2023-11-02T19:16:24.976Z,98243.84
2023-11-02T19:18:57.817Z,98245.69
2023-11-02T19:21:28.869Z,98232.44
2023-11-02T19:24:01.846Z,98226.94
2023-11-02T19:26:33.630Z,98228.34
2023-11-02T19:29:11.008Z,98236.88
2023-11-02T19:31:47.780Z,98248.91
2023-11-02T19:34:18.025Z,98252.00
2023-11-02T19:36:52.501Z,98248.09
2023-11-02T19:40:01.859Z,98258.44
2023-11-02T19:42:33.326Z,98253.94
2023-11-02T19:45:06.603Z,98256.81
2023-11-02T19:47:38.216Z,98262.91
2023-11-02T19:50:12.059Z,98263.34
2023-11-02T19:52:43.317Z,98266.00
2023-11-02T19:55:16.782Z,98262.75
2023-11-02T19:57:48.275Z,98255.63
2023-11-02T20:00:22.261Z,98247.09
2023-11-02T20:02:53.017Z,98240.38
2023-11-02T20:05:23.388Z,98229.38
2023-11-02T20:07:56.592Z,98234.22
2023-11-02T20:10:28.691Z,98229.97
2023-11-02T20:12:58.815Z,98229.16
2023-11-02T20:15:31.663Z,98218.78
2023-11-02T20:18:01.916Z,98213.72
2023-11-02T20:20:34.664Z,98210.25
2023-11-02T20:23:07.782Z,98210.47
2023-11-02T20:25:38.106Z,98212.91
2023-11-02T20:28:11.127Z,98213.34
2023-11-02T20:30:49.323Z,98219.06
2023-11-02T20:33:19.368Z,98207.44
2023-11-02T20:35:52.789Z,98204.78
2023-11-02T20:38:22.865Z,98204.00
2023-11-02T20:40:55.538Z,98208.25
2023-11-02T20:43:25.698Z,98211.53
2023-11-02T20:45:58.457Z,98210.56
2023-11-02T20:48:42.203Z,98199.41
2023-11-02T20:51:19.999Z,98192.31
2023-11-02T20:53:50.177Z,98193.31
2023-11-02T20:56:20.377Z,98190.25
2023-11-02T20:58:50.612Z,98181.53
2023-11-02T21:01:23.340Z,98171.75
2023-11-02T21:03:56.031Z,98168.50
2023-11-02T21:06:34.485Z,98176.03
2023-11-02T21:09:05.233Z,98171.56
2023-11-02T21:11:39.476Z,98168.09
2023-11-02T21:14:27.669Z,98170.97
2023-11-02T21:47:47.855Z,98172.94
2023-11-02T22:17:42.693Z,98121.47
2023-11-02T22:20:46.121Z,98105.50
2023-11-02T22:26:31.330Z,98095.25
2023-11-02T22:29:40.804Z,98082.88
2023-11-02T22:32:51.114Z,98072.50
2023-11-02T22:35:35.108Z,98073.53
2023-11-02T22:38:16.913Z,98082.50
2023-11-02T22:40:57.407Z,98082.13
2023-11-02T22:43:38.722Z,98083.16
2023-11-02T22:46:15.915Z,98079.31
2023-11-02T22:49:00.126Z,98073.22
2023-11-02T22:51:38.110Z,98072.41
2023-11-02T22:54:40.358Z,98077.09
2023-11-02T22:57:57.353Z,98063.72
2023-11-02T23:01:21.523Z,98071.88
2023-11-02T23:08:20.589Z,98085.72
2023-11-02T23:23:18.045Z,98051.97
2023-11-02T23:30:13.200Z,98082.06
2023-11-02T23:32:58.855Z,98093.06
2023-11-02T23:35:37.982Z,98088.00
2023-11-02T23:42:07.891Z,98085.94
2023-11-02T23:45:00.884Z,98073.97
2023-11-02T23:48:11.085Z,98048.56
2023-11-02T23:51:06.094Z,98052.59
2023-11-02T23:53:49.080Z,98054.00
2023-11-02T23:56:55.221Z,98028.16
2023-11-02T23:59:48.597Z,98034.63
